Julie C — 2CJQ7 — position and weather

sailwx.info

Track history (hours):
 
Tides and Currents Weather Stations Pressure Air Temp Water Temp Dewpoint Dewpoint Depression Visibility Wind Speed Wind Dir Waves Ship Positions

Julie C

Last reported at 2017-Oct-09 05:13 UTC. Time now 2017-Oct-19 22:09 UTC.
Position N 29°22' W 094°48'.
Warning: this ship's position is 10 days out of date.

Length 138 m; draft 6 m.

Type: Ship. MMSI: 235073372.

Date/timePositionNaut miles runAvg speedWind from/ knotsBaromVisibWave heightAir tempDewpointWater temp
2017-Oct-09 05:13N 29°22' W 094°48'312.1
2017-Oct-09 04:56N 29°25' W 094°50'512.6
2017-Oct-09 04:30N 29°30' W 094°52'612.7
2017-Oct-09 04:01N 29°35' W 094°56'612.8
2017-Oct-09 03:30N 29°41' W 094°59'5 9.3
2017-Oct-09 03:00N 29°44' W 095°03'3 5.5
2017-Oct-09 02:29N 29°45' W 095°06'3 6.1
2017-Oct-09 02:01N 29°44' W 095°09'1 0.1
2017-Oct-08 14:10N 29°45' W 095°10'0 0.0
2017-Oct-08 12:49N 29°45' W 095°10'0 0.0
2017-Oct-08 02:52N 29°45' W 095°10'0 0.0
2017-Oct-08 02:18N 29°45' W 095°10'0 0.2
2017-Oct-08 02:00N 29°45' W 095°10'3 5.5
2017-Oct-08 01:30N 29°44' W 095°07'3 6.1
2017-Oct-08 01:00N 29°45' W 095°04'4 8.4
2017-Oct-08 00:30N 29°42' W 095°00'611.2
2017-Oct-08 00:00N 29°37' W 094°57'713.3
2017-Oct-07 23:30N 29°31' W 094°53'  
Track history (hours):
 
Tides and Currents Weather Stations Pressure Air Temp Water Temp Dewpoint Dewpoint Depression Visibility Wind Speed Wind Dir Waves Ship Positions

Julie C

Last reported at 2017-Oct-09 05:13 UTC. Time now 2017-Oct-19 22:09 UTC.
Position N 29°22' W 094°48'.
Warning: this ship's position is 10 days out of date.

Length 138 m; draft 6 m.

Type: Ship. MMSI: 235073372.

Date/timePositionNaut miles runAvg speedWind from/ knotsBaromVisibWave heightAir tempDewpointWater temp
2017-Oct-09 05:13N 29°22' W 094°48'312.1
2017-Oct-09 04:56N 29°25' W 094°50'512.6
2017-Oct-09 04:30N 29°30' W 094°52'612.7
2017-Oct-09 04:01N 29°35' W 094°56'612.8
2017-Oct-09 03:30N 29°41' W 094°59'5 9.3
2017-Oct-09 03:00N 29°44' W 095°03'3 5.5
2017-Oct-09 02:29N 29°45' W 095°06'3 6.1
2017-Oct-09 02:01N 29°44' W 095°09'1 0.1
2017-Oct-08 14:10N 29°45' W 095°10'0 0.0
2017-Oct-08 12:49N 29°45' W 095°10'0 0.0
2017-Oct-08 02:52N 29°45' W 095°10'0 0.0
2017-Oct-08 02:18N 29°45' W 095°10'0 0.2
2017-Oct-08 02:00N 29°45' W 095°10'3 5.5
2017-Oct-08 01:30N 29°44' W 095°07'3 6.1
2017-Oct-08 01:00N 29°45' W 095°04'4 8.4
2017-Oct-08 00:30N 29°42' W 095°00'611.2
2017-Oct-08 00:00N 29°37' W 094°57'713.3
2017-Oct-07 23:30N 29°31' W 094°53'  

Dump ship's entire track history